Time;durP1;ratioP1;P1;durP2;ratioP2;P2;SDS_P1;SDS_P2;PMS_P1;PMS_P2;Temp;Humidity;BMP_temperature;BMP_pressure;BME280_temperature;BME280_humidity;BME280_pressure;Samples;Min_cycle;Max_cycle;Signal;HPM_P1;HPM_P2
2021/03/28 00:01:15;;;;;;;8.00;6.40;;;;;;;;;;10357731;28;20067;-61
2021/03/28 00:06:15;;;;;;;8.85;7.35;;;;;;;;;;10337205;28;20513;-60
2021/03/28 00:11:15;;;;;;;9.65;7.25;;;;;;;;;;10317030;28;20068;-61
2021/03/28 00:16:13;;;;;;;9.20;7.07;;;;;;;;;;10317091;28;20055;-61
2021/03/28 00:21:19;;;;;;;12.38;8.30;;;;;;;;;;10320263;28;20516;-61
2021/03/28 00:26:22;;;;;;;10.77;7.63;;;;;;;;;;10350097;28;20476;-60
2021/03/28 00:31:23;;;;;;;8.93;6.78;;;;;;;;;;10314687;28;20044;-61
2021/03/28 00:36:28;;;;;;;10.93;7.85;;;;;;;;;;10336506;28;20071;-62
2021/03/28 00:41:28;;;;;;;9.38;7.20;;;;;;;;;;10357455;28;20087;-62
2021/03/28 00:46:38;;;;;;;8.38;6.95;;;;;;;;;;10357284;28;20052;-62
2021/03/28 00:51:43;;;;;;;9.98;7.60;;;;;;;;;;10337119;28;20048;-63
2021/03/28 00:56:43;;;;;;;11.60;7.82;;;;;;;;;;10314433;28;20138;-62
2021/03/28 01:01:56;;;;;;;9.43;7.45;;;;;;;;;;10314169;28;20065;-62
2021/03/28 01:06:55;;;;;;;10.48;8.27;;;;;;;;;;10315193;28;20511;-62
2021/03/28 01:12:06;;;;;;;10.05;7.72;;;;;;;;;;10316969;28;20083;-62
2021/03/28 01:17:21;;;;;;;9.48;7.68;;;;;;;;;;10323634;28;20044;-61
2021/03/28 01:22:20;;;;;;;11.63;9.57;;;;;;;;;;10326905;28;20048;-61
2021/03/28 01:27:21;;;;;;;14.68;8.85;;;;;;;;;;10363062;28;20488;-61
2021/03/28 01:32:24;;;;;;;13.50;8.65;;;;;;;;;;10362905;28;20044;-62
2021/03/28 01:37:24;;;;;;;10.52;8.45;;;;;;;;;;10354664;28;20065;-62
2021/03/28 01:42:51;;;;;;;10.77;8.10;;;;;;;;;;10320989;28;20091;-61
2021/03/28 01:47:56;;;;;;;12.65;8.38;;;;;;;;;;10243855;28;20080;-60
2021/03/28 01:53:00;;;;;;;11.05;9.05;;;;;;;;;;10320993;28;20080;-62
2021/03/28 01:58:01;;;;;;;11.60;8.35;;;;;;;;;;10320717;28;20044;-62
2021/03/28 02:03:02;;;;;;;12.68;7.88;;;;;;;;;;10319029;28;20071;-62
2021/03/28 02:08:08;;;;;;;11.02;8.40;;;;;;;;;;10320594;28;20095;-63
2021/03/28 02:13:13;;;;;;;12.88;8.52;;;;;;;;;;10320426;28;20064;-60
2021/03/28 02:18:19;;;;;;;9.40;8.25;;;;;;;;;;10320488;28;20048;-61
2021/03/28 02:23:21;;;;;;;10.13;8.80;;;;;;;;;;10319579;28;20076;-60
2021/03/28 02:28:26;;;;;;;13.80;9.55;;;;;;;;;;10319487;28;20052;-61
2021/03/28 02:33:27;;;;;;;12.35;8.77;;;;;;;;;;10319876;28;20095;-61
2021/03/28 02:38:31;;;;;;;10.23;8.38;;;;;;;;;;10319313;28;20040;-61
2021/03/28 02:43:32;;;;;;;14.40;8.40;;;;;;;;;;10318929;28;20512;-60
2021/03/28 02:48:41;;;;;;;10.13;8.50;;;;;;;;;;10319229;28;20048;-61
2021/03/28 02:53:54;;;;;;;10.43;8.70;;;;;;;;;;10319023;28;20417;-60
2021/03/28 02:59:02;;;;;;;10.63;8.07;;;;;;;;;;10317890;28;20047;-61
2021/03/28 03:04:19;;;;;;;9.90;8.90;;;;;;;;;;10318027;28;20048;-61
2021/03/28 03:09:23;;;;;;;10.40;8.30;;;;;;;;;;10318377;28;20087;-61
2021/03/28 03:14:35;;;;;;;9.63;8.35;;;;;;;;;;10317612;28;20425;-62
2021/03/28 03:19:56;;;;;;;15.95;9.43;;;;;;;;;;10316826;28;20051;-60
2021/03/28 03:25:11;;;;;;;15.27;10.73;;;;;;;;;;10317781;28;20504;-60
2021/03/28 03:30:24;;;;;;;11.13;8.75;;;;;;;;;;10317302;28;20056;-62
2021/03/28 03:35:30;;;;;;;11.95;8.95;;;;;;;;;;10316469;28;20500;-60
2021/03/28 03:40:38;;;;;;;10.15;8.07;;;;;;;;;;10317855;28;20076;-61
2021/03/28 03:45:48;;;;;;;9.70;7.70;;;;;;;;;;10317565;28;20520;-61
2021/03/28 03:50:54;;;;;;;13.70;9.13;;;;;;;;;;10316271;28;20052;-59
2021/03/28 03:55:58;;;;;;;10.88;8.40;;;;;;;;;;10317048;28;20036;-59
2021/03/28 04:00:59;;;;;;;15.80;9.27;;;;;;;;;;10315448;28;20589;-60
2021/03/28 04:06:06;;;;;;;12.15;9.15;;;;;;;;;;10316909;28;20045;-60
2021/03/28 04:11:08;;;;;;;9.57;8.15;;;;;;;;;;10317064;28;20405;-60
2021/03/28 04:16:16;;;;;;;9.98;8.18;;;;;;;;;;10316969;28;20048;-60
2021/03/28 04:21:21;;;;;;;12.70;9.40;;;;;;;;;;10316734;28;20471;-61
2021/03/28 04:26:26;;;;;;;12.50;9.63;;;;;;;;;;10316622;28;20052;-60
2021/03/28 04:31:50;;;;;;;11.82;9.23;;;;;;;;;;10316683;28;20413;-61
2021/03/28 04:37:04;;;;;;;16.98;11.57;;;;;;;;;;10316440;28;20059;-61
2021/03/28 04:42:16;;;;;;;10.48;8.82;;;;;;;;;;10314415;28;20076;-61
2021/03/28 04:47:27;;;;;;;10.70;8.30;;;;;;;;;;10319597;28;20048;-62
2021/03/28 04:52:39;;;;;;;11.88;8.55;;;;;;;;;;10323478;28;20075;-61
2021/03/28 04:57:49;;;;;;;10.02;8.75;;;;;;;;;;10323260;28;20056;-61
2021/03/28 05:03:07;;;;;;;14.80;9.45;;;;;;;;;;10323204;28;20072;-61
2021/03/28 05:08:21;;;;;;;11.75;8.95;;;;;;;;;;10322941;28;20055;-61
2021/03/28 05:13:20;;;;;;;;;;;;;;;;;;10323608;28;20071;-62
2021/03/28 05:18:43;;;;;;;10.43;8.48;;;;;;;;;;10322795;28;19928;-62
2021/03/28 05:23:55;;;;;;;11.80;8.18;;;;;;;;;;10322115;28;20076;-62
2021/03/28 05:29:08;;;;;;;9.27;7.95;;;;;;;;;;10322164;28;20083;-62
2021/03/28 05:34:21;;;;;;;11.90;9.18;;;;;;;;;;10321884;28;20052;-61
2021/03/28 05:39:36;;;;;;;16.60;10.13;;;;;;;;;;10321914;28;20045;-62
2021/03/28 05:44:55;;;;;;;13.33;9.20;;;;;;;;;;10321912;28;20051;-62
2021/03/28 05:50:20;;;;;;;12.10;8.68;;;;;;;;;;10321712;28;20041;-62
2021/03/28 05:55:38;;;;;;;12.52;9.23;;;;;;;;;;10289334;28;20096;-62
2021/03/28 06:00:40;;;;;;;12.55;8.45;;;;;;;;;;10320622;28;20083;-61
2021/03/28 06:05:58;;;;;;;16.38;9.98;;;;;;;;;;10320962;28;20063;-62
2021/03/28 06:11:14;;;;;;;15.30;10.45;;;;;;;;;;10321610;28;20107;-61
2021/03/28 06:16:11;;;;;;;;;;;;;;;;;;10321463;28;20091;-61
2021/03/28 06:21:22;;;;;;;16.60;12.18;;;;;;;;;;10319055;28;19971;-62
2021/03/28 06:26:46;;;;;;;14.45;11.15;;;;;;;;;;10318676;28;20048;-61
2021/03/28 06:32:02;;;;;;;12.07;9.82;;;;;;;;;;10320431;28;20053;-62
2021/03/28 06:37:17;;;;;;;54.45;29.48;;;;;;;;;;10317875;28;20048;-61
2021/03/28 07:00:09;;;;;;;25.25;14.88;;;;;;;;;;10358612;28;20786;-61
2021/03/28 07:05:19;;;;;;;41.40;28.52;;;;;;;;;;10359023;28;20056;-61
2021/03/28 07:10:43;;;;;;;30.17;17.52;;;;;;;;;;10358688;28;20052;-61
2021/03/28 07:15:47;;;;;;;45.25;31.05;;;;;;;;;;10323454;28;20103;-60
2021/03/28 07:21:09;;;;;;;39.43;27.77;;;;;;;;;;10357371;28;20521;-59
2021/03/28 07:26:18;;;;;;;26.20;20.95;;;;;;;;;;10346604;28;20052;-61
2021/03/28 07:31:42;;;;;;;29.35;21.90;;;;;;;;;;10333897;28;20083;-62
2021/03/28 07:36:43;;;;;;;18.92;15.40;;;;;;;;;;10331267;28;20048;-61
2021/03/28 07:41:52;;;;;;;22.67;19.67;;;;;;;;;;10340244;28;20068;-61
2021/03/28 07:47:00;;;;;;;21.33;18.77;;;;;;;;;;10334686;28;20071;-60
2021/03/28 07:52:18;;;;;;;22.13;14.73;;;;;;;;;;10335881;28;20071;-62
2021/03/28 07:57:34;;;;;;;19.15;13.82;;;;;;;;;;10319286;28;20084;-62
2021/03/28 08:02:56;;;;;;;17.48;13.50;;;;;;;;;;10329467;28;20115;-60
2021/03/28 08:07:55;;;;;;;17.48;11.85;;;;;;;;;;10319560;28;20182;-61
2021/03/28 08:12:57;;;;;;;21.13;14.63;;;;;;;;;;10333434;28;20505;-62
2021/03/28 08:17:57;;;;;;;17.52;13.57;;;;;;;;;;10316192;28;20076;-63
2021/03/28 08:23:18;;;;;;;15.98;11.88;;;;;;;;;;10320288;28;20072;-63
2021/03/28 08:28:23;;;;;;;16.92;13.27;;;;;;;;;;10339450;28;20083;-62
2021/03/28 08:33:32;;;;;;;19.30;11.98;;;;;;;;;;10338745;28;20489;-62
2021/03/28 08:38:46;;;;;;;17.40;13.02;;;;;;;;;;10330464;28;20504;-62
2021/03/28 08:44:00;;;;;;;31.15;20.90;;;;;;;;;;10322603;28;20083;-61
2021/03/28 08:49:01;;;;;;;21.10;14.50;;;;;;;;;;10322285;28;20489;-61
2021/03/28 08:54:19;;;;;;;15.18;10.82;;;;;;;;;;10321604;28;20071;-60
2021/03/28 08:59:19;;;;;;;12.10;9.82;;;;;;;;;;10336513;28;20324;-61
2021/03/28 09:04:31;;;;;;;26.25;17.52;;;;;;;;;;10344914;28;20080;-60
2021/03/28 09:09:40;;;;;;;16.10;12.60;;;;;;;;;;10323130;28;20083;-61
2021/03/28 09:14:53;;;;;;;16.58;12.32;;;;;;;;;;10343463;28;20062;-60
2021/03/28 09:20:02;;;;;;;12.68;9.23;;;;;;;;;;10334405;28;20080;-60
2021/03/28 09:25:04;;;;;;;13.25;8.48;;;;;;;;;;10322854;28;20075;-63
2021/03/28 09:30:07;;;;;;;11.85;9.15;;;;;;;;;;10337789;28;20052;-64
2021/03/28 09:35:10;;;;;;;12.70;9.32;;;;;;;;;;10327337;28;20043;-63
2021/03/28 09:40:19;;;;;;;28.15;18.95;;;;;;;;;;10326665;28;20055;-63
2021/03/28 09:45:32;;;;;;;26.35;17.27;;;;;;;;;;10318902;28;20044;-63
2021/03/28 09:50:35;;;;;;;21.27;16.25;;;;;;;;;;10319534;28;20084;-63
2021/03/28 09:55:43;;;;;;;26.65;14.75;;;;;;;;;;10321880;28;20052;-63
2021/03/28 10:00:48;;;;;;;24.50;17.60;;;;;;;;;;10321271;28;20099;-63
2021/03/28 10:05:48;;;;;;;19.75;16.08;;;;;;;;;;10320618;28;20087;-63
2021/03/28 10:10:56;;;;;;;24.45;15.35;;;;;;;;;;10321209;28;20059;-63
2021/03/28 10:16:00;;;;;;;21.13;14.10;;;;;;;;;;10321038;28;20055;-63
2021/03/28 10:21:07;;;;;;;26.40;16.98;;;;;;;;;;10320527;28;20079;-64
2021/03/28 10:26:15;;;;;;;26.50;16.13;;;;;;;;;;10320229;28;20107;-64
2021/03/28 10:48:00;;;;;;;13.73;9.85;;;;;;;;;;10496870;23;20144;-66
2021/03/28 10:53:16;;;;;;;18.10;13.07;;;;;;;;;;10062986;28;20058;-66
2021/03/28 11:31:13;;;;;;;26.77;16.73;;;;;;;;;;10095099;23;20070;-64
2021/03/28 11:36:22;;;;;;;25.45;17.38;;;;;;;;;;10015340;29;20091;-65
2021/03/28 11:41:25;;;;;;;20.63;15.25;;;;;;;;;;10014637;29;20709;-65
2021/03/28 11:46:28;;;;;;;21.33;17.83;;;;;;;;;;10018866;29;20284;-64
2021/03/28 11:51:28;;;;;;;22.42;18.25;;;;;;;;;;10026658;29;20048;-67
2021/03/28 11:56:36;;;;;;;28.70;16.77;;;;;;;;;;9997613;29;20484;-68
2021/03/28 12:01:52;;;;;;;18.05;14.40;;;;;;;;;;10000680;29;20083;-64
2021/03/28 12:06:54;;;;;;;18.25;15.63;;;;;;;;;;10007072;29;20055;-68
2021/03/28 12:11:53;;;;;;;20.17;15.10;;;;;;;;;;10017374;29;20071;-65
2021/03/28 12:17:08;;;;;;;27.75;18.15;;;;;;;;;;10019671;29;20071;-66
2021/03/28 12:22:13;;;;;;;25.70;18.02;;;;;;;;;;10012057;29;20456;-67
2021/03/28 12:27:23;;;;;;;25.93;19.40;;;;;;;;;;10007382;29;20129;-64
2021/03/28 12:32:48;;;;;;;21.77;15.52;;;;;;;;;;10012665;29;20082;-67
2021/03/28 12:37:47;;;;;;;22.50;14.20;;;;;;;;;;10009707;29;20071;-65
2021/03/28 12:42:46;;;;;;;17.83;13.80;;;;;;;;;;10011122;29;20083;-67
2021/03/28 12:47:52;;;;;;;19.13;15.02;;;;;;;;;;10013515;29;20080;-67
2021/03/28 12:52:52;;;;;;;21.65;12.95;;;;;;;;;;10002081;29;20054;-68
2021/03/28 12:57:53;;;;;;;16.10;12.30;;;;;;;;;;10015758;29;20087;-68
2021/03/28 13:02:50;;;;;;;17.45;12.35;;;;;;;;;;10017360;29;20075;-68
2021/03/28 13:07:48;;;;;;;19.10;11.13;;;;;;;;;;10012226;29;20044;-66
2021/03/28 13:12:52;;;;;;;25.30;14.88;;;;;;;;;;10005128;29;20044;-68
2021/03/28 13:18:01;;;;;;;25.50;17.90;;;;;;;;;;10017778;29;20650;-66
2021/03/28 13:23:19;;;;;;;109.32;21.15;;;;;;;;;;10022379;29;20076;-68
2021/03/28 13:28:26;;;;;;;58.83;22.55;;;;;;;;;;10016191;29;20095;-68
2021/03/28 13:33:31;;;;;;;67.72;20.02;;;;;;;;;;10021831;29;20421;-68
2021/03/28 13:38:31;;;;;;;69.13;27.88;;;;;;;;;;10004509;29;20076;-68
2021/03/28 13:43:30;;;;;;;49.65;30.88;;;;;;;;;;10004118;29;20076;-69
2021/03/28 13:48:28;;;;;;;39.35;21.90;;;;;;;;;;10004080;29;20122;-69
2021/03/28 13:53:31;;;;;;;22.45;14.48;;;;;;;;;;10003739;29;20122;-67
2021/03/28 13:58:31;;;;;;;38.55;25.02;;;;;;;;;;10006445;29;20075;-68
2021/03/28 14:03:29;;;;;;;33.65;23.60;;;;;;;;;;10016371;29;20519;-69
2021/03/28 14:08:27;;;;;;;30.35;19.58;;;;;;;;;;10003936;29;20048;-67
2021/03/28 14:13:28;;;;;;;24.52;16.05;;;;;;;;;;10007409;29;20078;-68
2021/03/28 14:18:30;;;;;;;22.48;12.82;;;;;;;;;;10012010;29;20055;-68
2021/03/28 14:23:30;;;;;;;18.13;9.43;;;;;;;;;;10006009;29;20094;-68
2021/03/28 14:28:40;;;;;;;28.92;15.45;;;;;;;;;;10007618;29;20083;-68
2021/03/28 14:33:44;;;;;;;21.23;14.70;;;;;;;;;;10016801;29;20067;-67
2021/03/28 14:38:56;;;;;;;16.60;13.30;;;;;;;;;;10019011;29;20071;-66
2021/03/28 14:44:14;;;;;;;13.82;10.70;;;;;;;;;;9999687;29;20076;-67
2021/03/28 14:49:18;;;;;;;26.08;14.75;;;;;;;;;;10022304;29;20086;-68
2021/03/28 14:54:21;;;;;;;27.42;16.23;;;;;;;;;;10000123;29;20080;-68
2021/03/28 14:59:32;;;;;;;16.85;10.60;;;;;;;;;;10001975;29;20075;-67
2021/03/28 15:04:47;;;;;;;26.20;16.48;;;;;;;;;;10028224;29;20101;-68
2021/03/28 15:09:48;;;;;;;21.88;14.50;;;;;;;;;;10026696;29;20101;-68
2021/03/28 15:14:52;;;;;;;29.25;20.80;;;;;;;;;;10035672;29;20074;-67
2021/03/28 15:19:50;;;;;;;41.03;26.87;;;;;;;;;;10035622;29;20078;-68
2021/03/28 15:24:52;;;;;;;35.65;24.73;;;;;;;;;;10014863;29;20768;-68
2021/03/28 15:29:51;;;;;;;31.42;21.02;;;;;;;;;;10013156;29;20087;-65
2021/03/28 15:34:53;;;;;;;25.70;14.40;;;;;;;;;;10016107;29;20088;-65
2021/03/28 15:40:05;;;;;;;31.80;22.25;;;;;;;;;;10005853;29;20788;-65
2021/03/28 15:45:19;;;;;;;17.52;11.38;;;;;;;;;;10005447;29;20472;-65
2021/03/28 15:50:20;;;;;;;28.73;16.27;;;;;;;;;;10002189;29;20565;-62
2021/03/28 15:55:44;;;;;;;42.83;24.00;;;;;;;;;;10009752;29;20079;-64
2021/03/28 16:00:49;;;;;;;48.53;27.23;;;;;;;;;;10011651;29;20079;-64
2021/03/28 16:05:51;;;;;;;128.32;92.50;;;;;;;;;;10011880;29;20082;-64
2021/03/28 16:10:56;;;;;;;40.63;27.02;;;;;;;;;;10022740;29;20488;-63
2021/03/28 16:16:13;;;;;;;105.40;72.85;;;;;;;;;;10010055;29;20071;-64
2021/03/28 16:21:21;;;;;;;92.38;67.78;;;;;;;;;;10004728;29;20082;-64
2021/03/28 16:26:22;;;;;;;60.13;37.30;;;;;;;;;;10012291;29;20087;-65
2021/03/28 16:31:27;;;;;;;76.80;52.53;;;;;;;;;;10005265;29;20076;-65
2021/03/28 16:36:33;;;;;;;63.03;41.45;;;;;;;;;;10010385;29;20079;-65
2021/03/28 16:41:54;;;;;;;43.72;31.33;;;;;;;;;;10011097;29;20076;-65
2021/03/28 16:46:53;;;;;;;38.75;25.42;;;;;;;;;;10009998;29;20514;-66
2021/03/28 16:51:57;;;;;;;123.38;81.20;;;;;;;;;;10018434;29;20517;-68
2021/03/28 16:57:06;;;;;;;94.63;52.63;;;;;;;;;;10021825;29;20527;-66
2021/03/28 17:02:24;;;;;;;58.35;29.20;;;;;;;;;;10027081;29;20075;-66
2021/03/28 17:07:23;;;;;;;132.30;77.47;;;;;;;;;;10024464;29;20071;-64
2021/03/28 17:12:23;;;;;;;61.58;34.53;;;;;;;;;;10025713;29;20068;-65
2021/03/28 17:17:31;;;;;;;117.78;86.38;;;;;;;;;;10017077;29;20527;-64
2021/03/28 17:22:47;;;;;;;55.05;37.17;;;;;;;;;;10023475;29;20083;-64
2021/03/28 17:28:03;;;;;;;84.82;44.33;;;;;;;;;;10032553;29;20083;-65
2021/03/28 17:33:00;;;;;;;17.38;12.68;;;;;;;;;;10015912;29;20079;-65
2021/03/28 17:38:00;;;;;;;18.35;13.05;;;;;;;;;;10021997;29;20071;-66
2021/03/28 17:42:58;;;;;;;21.00;12.52;;;;;;;;;;10018304;29;20151;-65
2021/03/28 17:47:56;;;;;;;15.32;9.40;;;;;;;;;;10012869;29;20067;-64
2021/03/28 17:52:54;;;;;;;22.13;16.17;;;;;;;;;;10026971;29;20067;-65
2021/03/28 17:58:00;;;;;;;26.10;15.73;;;;;;;;;;10012225;29;20087;-64
2021/03/28 18:02:58;;;;;;;19.90;10.57;;;;;;;;;;10010694;29;20078;-65
2021/03/28 18:07:59;;;;;;;14.02;8.32;;;;;;;;;;10017089;29;20074;-65
2021/03/28 18:13:05;;;;;;;18.30;12.45;;;;;;;;;;10017486;29;20506;-64
2021/03/28 18:18:02;;;;;;;23.98;13.48;;;;;;;;;;10018185;29;20111;-65
2021/03/28 18:23:00;;;;;;;20.98;14.70;;;;;;;;;;10019752;29;20583;-64
2021/03/28 18:27:57;;;;;;;12.65;9.43;;;;;;;;;;10035798;29;20102;-64
2021/03/28 18:33:17;;;;;;;18.08;12.95;;;;;;;;;;10011056;29;20517;-65
2021/03/28 18:38:42;;;;;;;17.95;10.30;;;;;;;;;;10008999;29;20494;-64
2021/03/28 18:43:41;;;;;;;27.05;14.73;;;;;;;;;;9984029;29;20079;-65
2021/03/28 18:48:41;;;;;;;19.70;13.35;;;;;;;;;;10014298;29;20080;-63
2021/03/28 18:54:00;;;;;;;7.18;6.45;;;;;;;;;;10035845;29;20070;-65
2021/03/28 18:59:04;;;;;;;13.05;10.10;;;;;;;;;;10020562;29;20087;-62
2021/03/28 19:04:09;;;;;;;10.32;6.85;;;;;;;;;;10013109;29;20092;-63
2021/03/28 19:09:06;;;;;;;;;;;;;;;;;;10017545;29;20067;-63
2021/03/28 19:14:06;;;;;;;11.95;9.52;;;;;;;;;;10022030;29;19958;-64
2021/03/28 19:19:10;;;;;;;23.05;15.45;;;;;;;;;;10023601;29;20064;-64
2021/03/28 19:24:09;;;;;;;22.15;13.27;;;;;;;;;;10029192;29;20075;-64
2021/03/28 19:29:14;;;;;;;57.85;31.05;;;;;;;;;;10021492;29;20095;-63
2021/03/28 19:34:14;;;;;;;17.60;14.32;;;;;;;;;;10022991;29;20078;-64
2021/03/28 19:39:17;;;;;;;17.35;11.98;;;;;;;;;;9999478;29;20580;-65
2021/03/28 19:44:23;;;;;;;33.65;21.15;;;;;;;;;;10000054;29;20087;-64
2021/03/28 19:49:22;;;;;;;11.07;8.40;;;;;;;;;;10007812;29;20110;-64
2021/03/28 19:54:21;;;;;;;13.35;9.57;;;;;;;;;;10023374;29;20082;-65
2021/03/28 19:59:21;;;;;;;16.50;8.98;;;;;;;;;;10018231;29;20055;-64
2021/03/28 20:04:21;;;;;;;35.95;21.13;;;;;;;;;;10013311;29;20079;-63
2021/03/28 20:09:20;;;;;;;34.67;18.98;;;;;;;;;;10015632;29;20075;-64
2021/03/28 20:14:18;;;;;;;22.52;14.32;;;;;;;;;;10005471;29;20071;-66
2021/03/28 20:19:16;;;;;;;68.32;38.53;;;;;;;;;;10010541;29;20079;-65
2021/03/28 20:24:17;;;;;;;30.23;18.48;;;;;;;;;;10020483;29;20087;-66
2021/03/28 20:29:18;;;;;;;23.40;16.45;;;;;;;;;;10015424;29;20499;-65
2021/03/28 20:34:16;;;;;;;14.75;10.65;;;;;;;;;;10009549;29;20083;-64
2021/03/28 20:39:15;;;;;;;14.38;10.35;;;;;;;;;;10017058;29;20070;-64
2021/03/28 20:44:13;;;;;;;14.70;9.27;;;;;;;;;;10019500;29;20402;-65
2021/03/28 20:49:13;;;;;;;14.98;9.00;;;;;;;;;;10019351;29;20075;-65
2021/03/28 20:54:11;;;;;;;9.20;6.28;;;;;;;;;;10021318;29;20080;-63
2021/03/28 20:59:14;;;;;;;11.90;6.80;;;;;;;;;;10020963;29;20074;-64
2021/03/28 21:04:19;;;;;;;9.85;5.80;;;;;;;;;;10013731;29;20080;-64
2021/03/28 21:09:18;;;;;;;5.88;5.00;;;;;;;;;;9998502;29;20145;-65
2021/03/28 21:14:19;;;;;;;8.73;5.55;;;;;;;;;;10019175;29;20067;-65
2021/03/28 21:19:18;;;;;;;8.13;5.53;;;;;;;;;;10017438;29;20086;-64
2021/03/28 21:24:15;;;;;;;7.45;5.05;;;;;;;;;;10006643;29;20083;-64
2021/03/28 21:29:13;;;;;;;8.27;5.28;;;;;;;;;;10023920;29;20080;-66
2021/03/28 21:34:10;;;;;;;8.43;5.60;;;;;;;;;;10024699;29;20075;-64
2021/03/28 21:39:09;;;;;;;11.73;5.78;;;;;;;;;;10027338;29;20072;-64
2021/03/28 21:44:07;;;;;;;15.85;9.95;;;;;;;;;;10018019;29;20071;-63
2021/03/28 21:49:05;;;;;;;22.98;12.45;;;;;;;;;;10015805;29;20076;-66
2021/03/28 21:54:03;;;;;;;20.52;13.13;;;;;;;;;;10019669;29;20079;-64
2021/03/28 21:59:02;;;;;;;23.65;16.15;;;;;;;;;;10034423;29;20075;-64
2021/03/28 22:04:07;;;;;;;17.85;12.55;;;;;;;;;;10019075;29;20122;-64
2021/03/28 22:09:06;;;;;;;13.65;7.93;;;;;;;;;;10040657;29;20075;-64
2021/03/28 22:14:05;;;;;;;13.20;8.50;;;;;;;;;;10027292;29;20082;-64
2021/03/28 22:19:10;;;;;;;10.63;8.43;;;;;;;;;;10040907;29;20067;-66
2021/03/28 22:24:08;;;;;;;13.02;9.45;;;;;;;;;;10041466;29;20083;-66
2021/03/28 22:29:07;;;;;;;18.42;10.30;;;;;;;;;;10040988;29;20484;-65
2021/03/28 22:34:06;;;;;;;11.93;7.25;;;;;;;;;;10040809;29;20075;-65
2021/03/28 22:39:05;;;;;;;12.82;6.97;;;;;;;;;;10040846;29;20074;-65
2021/03/28 22:44:02;;;;;;;10.07;5.75;;;;;;;;;;10021702;29;20083;-65
2021/03/28 22:49:01;;;;;;;17.40;7.70;;;;;;;;;;10014503;29;20070;-65
2021/03/28 22:54:02;;;;;;;10.63;5.97;;;;;;;;;;10022625;29;20083;-64
2021/03/28 22:59:00;;;;;;;7.88;6.00;;;;;;;;;;10001568;29;20083;-65
2021/03/28 23:04:05;;;;;;;12.20;7.30;;;;;;;;;;10010303;29;20095;-64
2021/03/28 23:09:05;;;;;;;11.85;6.15;;;;;;;;;;10012016;29;20084;-65
2021/03/28 23:14:06;;;;;;;10.63;7.38;;;;;;;;;;10025160;29;20441;-66
2021/03/28 23:19:04;;;;;;;12.43;6.13;;;;;;;;;;10036691;29;20476;-65
2021/03/28 23:24:01;;;;;;;8.57;4.97;;;;;;;;;;10038604;29;20525;-66
2021/03/28 23:28:59;;;;;;;8.65;4.90;;;;;;;;;;10038546;29;20486;-66
2021/03/28 23:33:57;;;;;;;8.10;4.47;;;;;;;;;;10038894;29;20075;-66
2021/03/28 23:38:54;;;;;;;11.23;4.85;;;;;;;;;;10039174;29;20047;-65
2021/03/28 23:43:54;;;;;;;4.90;3.63;;;;;;;;;;10038429;29;20090;-64
2021/03/28 23:48:53;;;;;;;7.25;4.20;;;;;;;;;;10038098;29;20043;-66
2021/03/28 23:53:50;;;;;;;6.95;4.70;;;;;;;;;;10037798;29;20082;-65
2021/03/28 23:58:48;;;;;;;6.47;4.10;;;;;;;;;;10038090;29;20059;-66
